createdAt,value
2019-05-10T00:00:10.346Z,11.17
2019-05-10T00:02:57.738Z,11.16
2019-05-10T00:05:45.427Z,11.17
2019-05-10T00:08:32.674Z,11.14
2019-05-10T00:13:57.694Z,11.15
2019-05-10T00:16:26.765Z,11.13
2019-05-10T00:18:55.426Z,11.06
2019-05-10T00:21:24.087Z,11.07
2019-05-10T00:23:52.849Z,11.05
2019-05-10T00:26:21.570Z,11.03
2019-05-10T00:28:50.357Z,10.97
2019-05-10T00:31:19.130Z,10.98
2019-05-10T00:33:47.809Z,10.98
2019-05-10T00:36:16.475Z,11.01
2019-05-10T00:38:45.286Z,10.98
2019-05-10T00:41:13.953Z,10.97
2019-05-10T00:43:42.708Z,10.94
2019-05-10T00:46:11.383Z,10.95
2019-05-10T00:48:40.163Z,10.94
2019-05-10T00:51:08.902Z,10.90
2019-05-10T00:53:37.591Z,10.87
2019-05-10T00:56:06.276Z,10.84
2019-05-10T00:58:34.965Z,10.83
2019-05-10T01:01:03.609Z,10.81
2019-05-10T01:03:32.373Z,10.74
2019-05-10T01:06:01.097Z,10.71
2019-05-10T01:08:29.784Z,10.65
2019-05-10T01:10:58.439Z,10.62
2019-05-10T01:13:27.131Z,10.56
2019-05-10T01:15:55.816Z,10.49
2019-05-10T01:18:24.512Z,10.43
2019-05-10T01:20:53.170Z,10.43
2019-05-10T01:23:21.852Z,10.38
2019-05-10T01:25:50.515Z,10.27
2019-05-10T01:28:19.194Z,10.16
2019-05-10T01:30:47.928Z,10.17
2019-05-10T01:33:16.618Z,10.20
2019-05-10T01:35:45.330Z,10.16
2019-05-10T01:38:14.026Z,10.14
2019-05-10T01:40:42.685Z,10.06
2019-05-10T01:43:11.472Z,10.07
2019-05-10T01:45:40.241Z,10.08
2019-05-10T01:48:08.932Z,10.05
2019-05-10T01:50:37.592Z,10.01
2019-05-10T01:53:06.358Z,9.98
2019-05-10T01:55:50.444Z,9.92
2019-05-10T01:58:05.482Z,9.91
2019-05-10T02:00:34.226Z,9.89
2019-05-10T02:03:02.938Z,9.85
2019-05-10T02:05:31.585Z,9.79
2019-05-10T02:08:00.264Z,9.77
2019-05-10T02:10:29.618Z,9.70
2019-05-10T02:12:58.303Z,9.50
2019-05-10T02:15:27.028Z,9.49
2019-05-10T02:17:55.715Z,9.51
2019-05-10T02:20:24.362Z,9.49
2019-05-10T02:22:53.026Z,9.49
2019-05-10T02:25:21.837Z,9.45
2019-05-10T02:27:50.490Z,9.43
2019-05-10T02:30:19.391Z,9.40
2019-05-10T02:32:48.047Z,9.39
2019-05-10T02:35:16.862Z,9.38
2019-05-10T02:37:45.518Z,9.32
2019-05-10T02:40:15.156Z,9.29
2019-05-10T02:42:43.802Z,9.29
2019-05-10T02:45:12.812Z,9.23
2019-05-10T02:47:41.458Z,9.23
2019-05-10T02:50:11.264Z,9.27
2019-05-10T02:52:39.936Z,9.29
2019-05-10T02:55:08.770Z,9.30
2019-05-10T02:57:38.286Z,9.30
2019-05-10T03:00:07.893Z,9.28
2019-05-10T03:02:36.991Z,9.26
2019-05-10T03:05:07.733Z,9.25
2019-05-10T03:07:38.338Z,9.15
2019-05-10T03:10:11.438Z,9.12
2019-05-10T03:12:41.900Z,9.19
2019-05-10T03:15:12.442Z,9.28
2019-05-10T03:17:42.069Z,9.34
2019-05-10T03:20:12.602Z,9.39
2019-05-10T03:22:43.344Z,9.42
2019-05-10T03:25:14.375Z,9.44
2019-05-10T03:27:43.289Z,9.45
2019-05-10T03:30:12.336Z,9.47
2019-05-10T03:32:41.096Z,9.47
2019-05-10T03:35:11.089Z,9.51
2019-05-10T03:37:39.957Z,9.54
2019-05-10T03:40:09.382Z,9.56
2019-05-10T03:42:38.119Z,9.58
2019-05-10T03:45:10.151Z,9.50
2019-05-10T03:47:38.810Z,9.44
2019-05-10T03:50:09.212Z,9.49
2019-05-10T03:52:37.895Z,9.54
2019-05-10T03:55:06.978Z,9.56
2019-05-10T03:57:35.724Z,9.61
2019-05-10T04:00:07.368Z,9.65
2019-05-10T04:02:36.093Z,9.69
2019-05-10T04:05:06.787Z,9.72
2019-05-10T04:07:35.449Z,9.76
2019-05-10T04:10:06.158Z,9.83
2019-05-10T04:12:34.901Z,9.76
2019-05-10T04:15:04.731Z,9.73
2019-05-10T04:17:33.386Z,9.71
2019-05-10T04:20:02.121Z,9.71
2019-05-10T04:22:30.769Z,9.73
2019-05-10T04:24:59.469Z,9.80
2019-05-10T04:27:32.060Z,9.87
2019-05-10T04:29:58.550Z,9.92
2019-05-10T04:32:27.555Z,9.95
2019-05-10T04:34:56.287Z,9.96
2019-05-10T04:37:25.043Z,9.96
2019-05-10T04:39:53.747Z,9.98
2019-05-10T04:42:22.391Z,9.98
2019-05-10T04:44:53.503Z,10.03
2019-05-10T04:47:21.462Z,10.03
2019-05-10T04:49:50.125Z,10.09
2019-05-10T04:52:18.818Z,10.13
2019-05-10T04:54:47.485Z,10.17
2019-05-10T04:57:16.185Z,10.22
2019-05-10T04:59:44.919Z,10.28
2019-05-10T05:02:13.710Z,10.32
2019-05-10T05:04:42.364Z,10.33
2019-05-10T05:07:11.035Z,10.35
2019-05-10T05:09:39.708Z,10.32
2019-05-10T05:12:08.404Z,10.36
2019-05-10T05:14:37.069Z,10.37
2019-05-10T05:17:05.759Z,10.41
2019-05-10T05:19:34.433Z,10.40
2019-05-10T05:22:03.166Z,10.39
2019-05-10T05:24:31.877Z,10.40
2019-05-10T05:27:00.619Z,10.41
2019-05-10T05:29:29.304Z,10.40
2019-05-10T05:32:00.950Z,10.42
2019-05-10T05:34:28.502Z,10.43
2019-05-10T05:36:57.197Z,10.44
2019-05-10T05:39:25.944Z,10.47
2019-05-10T05:41:56.538Z,10.51
2019-05-10T05:44:26.006Z,10.50
2019-05-10T05:46:55.630Z,10.53
2019-05-10T05:49:24.368Z,10.54
2019-05-10T05:51:53.056Z,10.57
2019-05-10T05:54:22.693Z,10.61
2019-05-10T05:56:53.073Z,10.67
2019-05-10T05:59:23.644Z,10.74
2019-05-10T06:01:52.450Z,10.82
2019-05-10T06:04:21.133Z,10.90
2019-05-10T06:06:53.813Z,10.94
2019-05-10T06:09:20.309Z,11.07
2019-05-10T06:11:49.093Z,11.14
2019-05-10T06:14:17.762Z,11.16
2019-05-10T06:16:51.230Z,11.23
2019-05-10T06:19:20.532Z,11.30
2019-05-10T06:21:47.321Z,11.33
2019-05-10T06:24:16.080Z,11.36
2019-05-10T06:26:44.752Z,11.42
2019-05-10T06:29:17.225Z,11.06
2019-05-10T06:31:43.994Z,11.58
2019-05-10T06:34:12.755Z,11.58
2019-05-10T06:36:41.448Z,11.58
2019-05-10T06:39:10.137Z,11.68
2019-05-10T06:41:38.913Z,11.65
2019-05-10T06:44:07.584Z,11.66
2019-05-10T06:46:36.279Z,11.62
2019-05-10T06:49:08.365Z,11.59
2019-05-10T06:51:35.506Z,11.64
2019-05-10T06:54:04.353Z,11.63
2019-05-10T06:56:33.017Z,11.71
2019-05-10T06:59:13.098Z,11.68
2019-05-10T07:01:32.127Z,11.68
2019-05-10T07:04:00.839Z,11.74
2019-05-10T07:06:29.573Z,11.76
2019-05-10T07:08:59.537Z,11.74
2019-05-10T07:11:28.326Z,11.84
2019-05-10T07:13:57.027Z,11.90
2019-05-10T07:16:26.134Z,11.85
2019-05-10T07:19:00.530Z,11.82
2019-05-10T07:21:25.466Z,11.81
2019-05-10T07:23:54.158Z,11.77
2019-05-10T07:26:26.340Z,11.73
2019-05-10T07:28:57.513Z,11.75
2019-05-10T07:31:24.016Z,11.81
2019-05-10T07:33:53.047Z,11.82
2019-05-10T07:36:27.458Z,11.83
2019-05-10T07:38:52.120Z,11.85
2019-05-10T07:41:26.570Z,11.88
2019-05-10T07:43:51.219Z,11.92
2019-05-10T07:46:19.898Z,11.89
2019-05-10T07:48:53.506Z,11.92
2019-05-10T07:51:22.863Z,11.86
2019-05-10T07:53:49.700Z,11.82
2019-05-10T07:56:18.409Z,11.73
2019-05-10T07:58:47.187Z,11.70
2019-05-10T08:01:15.892Z,11.60
2019-05-10T08:03:52.122Z,11.56
2019-05-10T08:06:19.225Z,11.55
2019-05-10T08:08:49.490Z,11.58
2019-05-10T08:11:19.126Z,11.62
2019-05-10T08:13:48.647Z,11.62
2019-05-10T08:16:22.706Z,11.66
2019-05-10T08:18:49.796Z,11.68
2019-05-10T08:21:23.845Z,11.75
2019-05-10T08:23:51.928Z,11.88
2019-05-10T08:26:24.220Z,11.99
2019-05-10T08:28:52.417Z,12.11
2019-05-10T08:31:22.190Z,12.29
2019-05-10T08:33:57.183Z,12.55
2019-05-10T08:36:21.959Z,12.81
2019-05-10T08:39:03.055Z,12.95
2019-05-10T08:41:22.787Z,13.06
2019-05-10T08:43:53.141Z,13.19
2019-05-10T08:46:28.594Z,13.20
2019-05-10T08:48:53.886Z,13.35
2019-05-10T08:51:22.934Z,13.48
2019-05-10T08:53:53.582Z,13.50
2019-05-10T08:56:24.118Z,13.55
2019-05-10T08:58:53.620Z,13.37
2019-05-10T09:01:29.523Z,13.33
2019-05-10T09:03:59.155Z,13.32
2019-05-10T09:06:23.558Z,13.30
2019-05-10T09:09:01.363Z,13.24
2019-05-10T09:11:23.218Z,13.18
2019-05-10T09:13:53.374Z,13.12
2019-05-10T09:16:23.679Z,13.09
2019-05-10T09:18:53.523Z,13.07
2019-05-10T09:21:22.515Z,13.02
2019-05-10T09:24:01.222Z,13.04
2019-05-10T09:26:22.716Z,13.00
2019-05-10T09:28:53.467Z,13.01
2019-05-10T09:31:25.483Z,13.05
2019-05-10T09:33:54.314Z,13.02
2019-05-10T09:36:30.756Z,13.03
2019-05-10T09:38:53.223Z,13.11
2019-05-10T09:41:22.628Z,13.18
2019-05-10T09:43:53.591Z,13.45
2019-05-10T09:46:22.870Z,13.50
2019-05-10T09:48:54.481Z,13.50
2019-05-10T09:51:30.181Z,13.53
2019-05-10T09:53:52.545Z,13.50
2019-05-10T09:56:22.728Z,13.47
2019-05-10T09:58:53.767Z,13.35
2019-05-10T10:01:22.554Z,13.25
2019-05-10T10:03:51.302Z,13.19
2019-05-10T10:06:23.833Z,13.08
2019-05-10T10:08:53.537Z,12.94
2019-05-10T10:11:22.399Z,12.78
2019-05-10T10:13:58.981Z,12.66
2019-05-10T10:16:21.519Z,12.58
2019-05-10T10:18:50.182Z,12.49
2019-05-10T10:21:30.818Z,12.40
2019-05-10T10:23:49.408Z,12.35
2019-05-10T10:26:22.197Z,12.33
2019-05-10T10:28:49.577Z,12.26
2019-05-10T10:31:27.071Z,12.23
2019-05-10T10:33:58.227Z,12.26
2019-05-10T10:36:20.227Z,12.41
2019-05-10T10:38:49.785Z,12.47
2019-05-10T10:41:25.863Z,12.55
2019-05-10T10:43:49.305Z,12.64
2019-05-10T10:46:19.892Z,12.69
2019-05-10T10:48:51.049Z,12.71
2019-05-10T10:51:18.957Z,12.69
2019-05-10T10:53:47.621Z,12.72
2019-05-10T10:56:17.611Z,12.67
2019-05-10T10:58:49.612Z,12.74
2019-05-10T11:01:21.520Z,12.71
2019-05-10T11:03:49.088Z,12.68
2019-05-10T11:06:17.678Z,12.68
2019-05-10T11:08:46.364Z,12.68
2019-05-10T11:11:15.093Z,12.63
2019-05-10T11:13:45.800Z,12.58
2019-05-10T11:16:15.525Z,12.62
2019-05-10T11:18:44.611Z,12.64
2019-05-10T11:21:13.323Z,12.63
2019-05-10T11:23:42.235Z,12.60
2019-05-10T11:26:11.037Z,12.54
2019-05-10T11:28:43.919Z,12.50
2019-05-10T11:31:11.411Z,12.45
2019-05-10T11:33:41.450Z,12.43
2019-05-10T11:36:11.415Z,12.42
2019-05-10T11:38:42.015Z,12.38
2019-05-10T11:41:13.590Z,12.34
2019-05-10T11:43:42.032Z,12.30
2019-05-10T11:46:11.727Z,12.31
2019-05-10T11:48:42.161Z,12.36
2019-05-10T11:51:17.180Z,12.36
2019-05-10T11:53:41.726Z,12.42
2019-05-10T12:01:17.544Z,12.88
2019-05-10T12:03:42.543Z,12.99
2019-05-10T12:06:12.108Z,13.03
2019-05-10T12:08:41.836Z,13.07
2019-05-10T12:13:41.356Z,13.00
2019-05-10T12:16:16.103Z,13.13
2019-05-10T12:21:11.407Z,13.52
2019-05-10T12:23:49.995Z,13.53
2019-05-10T12:26:16.068Z,13.01
2019-05-10T12:26:18.268Z,13.28
2019-05-10T12:26:18.978Z,12.78
2019-05-10T12:26:27.159Z,12.64
2019-05-10T12:28:41.037Z,13.39
2019-05-10T12:31:15.179Z,13.24
2019-05-10T12:33:44.537Z,13.12
2019-05-10T12:36:22.388Z,12.99
2019-05-10T12:38:40.982Z,12.85
2019-05-10T12:41:09.652Z,12.81
2019-05-10T12:43:43.150Z,12.72
2019-05-10T12:46:10.503Z,12.60
2019-05-10T12:48:39.155Z,12.54
2019-05-10T12:51:11.813Z,12.49
2019-05-10T12:53:44.416Z,12.42
2019-05-10T12:56:08.596Z,12.45
2019-05-10T12:58:37.393Z,12.52
2019-05-10T13:01:06.066Z,12.53
2019-05-10T13:03:34.743Z,12.57
2019-05-10T13:06:03.459Z,12.63
2019-05-10T13:08:32.184Z,12.75
2019-05-10T13:11:00.832Z,12.87
2019-05-10T13:13:30.151Z,12.89
2019-05-10T13:16:03.648Z,12.93
2019-05-10T13:21:00.977Z,13.00
2019-05-10T13:23:29.680Z,13.09
2019-05-10T13:26:23.793Z,13.17
2019-05-10T13:28:52.444Z,13.17
2019-05-10T13:31:21.326Z,13.27
2019-05-10T13:33:50.015Z,13.31
2019-05-10T13:36:18.712Z,13.27
2019-05-10T13:38:49.210Z,13.27
2019-05-10T13:41:23.724Z,13.19
2019-05-10T13:43:48.407Z,13.07
2019-05-10T13:46:17.156Z,13.04
2019-05-10T13:48:45.866Z,12.97
2019-05-10T13:51:14.594Z,13.00
2019-05-10T13:53:43.241Z,12.90
2019-05-10T13:56:11.951Z,12.83
2019-05-10T13:58:40.648Z,12.75
2019-05-10T14:01:13.185Z,12.68
2019-05-10T14:03:44.293Z,12.68
2019-05-10T14:06:10.420Z,12.74
2019-05-10T14:08:42.785Z,12.77
2019-05-10T14:11:09.512Z,12.81
2019-05-10T14:13:41.667Z,12.81
2019-05-10T14:16:18.611Z,12.83
2019-05-10T14:18:39.341Z,12.85
2019-05-10T14:21:08.121Z,12.78
2019-05-10T14:23:37.406Z,12.83
2019-05-10T14:26:09.145Z,12.75
2019-05-10T14:28:36.595Z,12.74
2019-05-10T14:31:05.401Z,12.84
2019-05-10T14:33:34.127Z,12.93
2019-05-10T14:36:03.400Z,13.09
2019-05-10T14:38:32.254Z,13.11
2019-05-10T14:41:04.042Z,13.43
2019-05-10T14:43:31.355Z,13.56
2019-05-10T14:46:00.092Z,13.68
2019-05-10T14:48:30.731Z,13.77
2019-05-10T14:51:03.319Z,13.88
2019-05-10T14:53:29.733Z,13.96
2019-05-10T14:55:58.529Z,13.95
2019-05-10T14:58:27.287Z,13.76
2019-05-10T15:00:55.961Z,13.67
2019-05-10T15:03:24.721Z,13.59
2019-05-10T15:05:55.649Z,13.62
2019-05-10T15:08:24.016Z,13.57
